CXL weather

Calexico International Airport
Calexico, California, United States

Public forecast

Using degrees Fahrenheit for public forecast. Weather courtesy of forecast.io.

Closest aviation weather report (METAR) to Calexico International Airport

Closest report is Imperial County Airport, 10.4 nm (19.3 km) NNW. Retrieved 2020/07/11 19:53 UTC (10 minutes ago):

KIPL 111953Z AUTO 12007KT 10SM CLR 39/14 A2985 RMK AO2 SLP107 T03890144

Closest aviation forecast (TAF) to Calexico International Airport

Closest forecast is Imperial County Airport, 10.4 nm (19.3 km) NNW. Retrieved 2020/07/11 18:30 UTC (2 hours ago):

TAF KIPL 111729Z 1118/1218 12006KT P6SM FEW150 BKN250 FM112300 20010KT P6SM FEW150 BKN250 FM120900 15007KT P6SM FEW150 SCT250